sensor_id;sensor_type;location;lat;lon;timestamp;P1;durP1;ratioP1;P2;durP2;ratioP2
9848;SDS011;4963;51.444;6.528;2022-12-29T00:02:14;1.27;;;1.10;;
9848;SDS011;4963;51.444;6.528;2022-12-29T00:04:42;1.30;;;1.13;;
9848;SDS011;4963;51.444;6.528;2022-12-29T00:07:09;1.37;;;1.20;;
9848;SDS011;4963;51.444;6.528;2022-12-29T00:09:36;1.63;;;1.03;;
9848;SDS011;4963;51.444;6.528;2022-12-29T00:12:03;2.07;;;1.10;;
9848;SDS011;4963;51.444;6.528;2022-12-29T00:14:32;1.50;;;1.20;;
9848;SDS011;4963;51.444;6.528;2022-12-29T00:17:16;1.30;;;1.20;;
9848;SDS011;4963;51.444;6.528;2022-12-29T00:19:43;1.37;;;1.20;;
9848;SDS011;4963;51.444;6.528;2022-12-29T00:22:27;1.23;;;1.10;;
9848;SDS011;4963;51.444;6.528;2022-12-29T00:25:12;1.30;;;1.07;;
9848;SDS011;4963;51.444;6.528;2022-12-29T00:27:57;1.13;;;1.03;;
9848;SDS011;4963;51.444;6.528;2022-12-29T00:30:42;1.73;;;1.10;;
9848;SDS011;4963;51.444;6.528;2022-12-29T00:33:28;0.90;;;0.83;;
9848;SDS011;4963;51.444;6.528;2022-12-29T00:36:15;1.00;;;0.80;;
9848;SDS011;4963;51.444;6.528;2022-12-29T00:38:45;2.27;;;1.00;;
9848;SDS011;4963;51.444;6.528;2022-12-29T00:41:31;1.20;;;1.00;;
9848;SDS011;4963;51.444;6.528;2022-12-29T00:44:16;0.80;;;0.80;;
9848;SDS011;4963;51.444;6.528;2022-12-29T00:46:44;1.17;;;1.07;;
9848;SDS011;4963;51.444;6.528;2022-12-29T00:49:12;1.87;;;1.10;;
9848;SDS011;4963;51.444;6.528;2022-12-29T00:51:58;1.50;;;1.20;;
9848;SDS011;4963;51.444;6.528;2022-12-29T00:54:26;1.47;;;1.07;;
9848;SDS011;4963;51.444;6.528;2022-12-29T00:56:54;1.17;;;1.07;;
9848;SDS011;4963;51.444;6.528;2022-12-29T00:59:21;1.63;;;1.00;;
9848;SDS011;4963;51.444;6.528;2022-12-29T01:01:51;1.33;;;1.03;;
9848;SDS011;4963;51.444;6.528;2022-12-29T01:04:18;1.20;;;1.10;;
9848;SDS011;4963;51.444;6.528;2022-12-29T01:06:46;1.10;;;1.00;;
9848;SDS011;4963;51.444;6.528;2022-12-29T01:09:13;1.00;;;0.90;;
9848;SDS011;4963;51.444;6.528;2022-12-29T01:11:57;1.13;;;1.03;;
9848;SDS011;4963;51.444;6.528;2022-12-29T01:14:24;1.20;;;1.00;;
9848;SDS011;4963;51.444;6.528;2022-12-29T01:16:53;1.20;;;1.10;;
9848;SDS011;4963;51.444;6.528;2022-12-29T01:19:20;1.70;;;1.10;;
9848;SDS011;4963;51.444;6.528;2022-12-29T01:21:47;1.40;;;1.23;;
9848;SDS011;4963;51.444;6.528;2022-12-29T01:24:15;1.30;;;1.10;;
9848;SDS011;4963;51.444;6.528;2022-12-29T01:26:42;0.90;;;0.87;;
9848;SDS011;4963;51.444;6.528;2022-12-29T01:29:09;1.20;;;0.97;;
9848;SDS011;4963;51.444;6.528;2022-12-29T01:31:36;1.50;;;1.07;;
9848;SDS011;4963;51.444;6.528;2022-12-29T01:34:05;1.33;;;1.10;;
9848;SDS011;4963;51.444;6.528;2022-12-29T01:36:32;0.90;;;0.90;;
9848;SDS011;4963;51.444;6.528;2022-12-29T01:38:59;1.03;;;0.93;;
9848;SDS011;4963;51.444;6.528;2022-12-29T01:41:26;1.40;;;1.20;;
9848;SDS011;4963;51.444;6.528;2022-12-29T01:43:54;1.27;;;0.90;;
9848;SDS011;4963;51.444;6.528;2022-12-29T01:46:25;1.33;;;0.87;;
9848;SDS011;4963;51.444;6.528;2022-12-29T01:48:57;1.47;;;0.83;;
9848;SDS011;4963;51.444;6.528;2022-12-29T01:51:32;1.60;;;1.00;;
9848;SDS011;4963;51.444;6.528;2022-12-29T01:54:02;0.83;;;0.80;;
9848;SDS011;4963;51.444;6.528;2022-12-29T01:56:34;1.40;;;0.97;;
9848;SDS011;4963;51.444;6.528;2022-12-29T01:59:04;0.97;;;0.80;;
9848;SDS011;4963;51.444;6.528;2022-12-29T02:01:35;1.13;;;1.00;;
9848;SDS011;4963;51.444;6.528;2022-12-29T02:04:02;0.97;;;0.87;;
9848;SDS011;4963;51.444;6.528;2022-12-29T02:06:31;0.90;;;0.90;;
9848;SDS011;4963;51.444;6.528;2022-12-29T02:09:03;1.73;;;0.90;;
9848;SDS011;4963;51.444;6.528;2022-12-29T02:11:30;1.40;;;1.00;;
9848;SDS011;4963;51.444;6.528;2022-12-29T02:13:57;1.43;;;1.00;;
9848;SDS011;4963;51.444;6.528;2022-12-29T02:16:30;1.10;;;0.90;;
9848;SDS011;4963;51.444;6.528;2022-12-29T02:19:14;1.00;;;0.90;;
9848;SDS011;4963;51.444;6.528;2022-12-29T02:22:06;2.33;;;1.23;;
9848;SDS011;4963;51.444;6.528;2022-12-29T02:27:51;1.37;;;1.07;;
9848;SDS011;4963;51.444;6.528;2022-12-29T02:30:31;2.07;;;1.10;;
9848;SDS011;4963;51.444;6.528;2022-12-29T02:33:05;2.67;;;1.20;;
9848;SDS011;4963;51.444;6.528;2022-12-29T02:35:41;1.50;;;1.00;;
9848;SDS011;4963;51.444;6.528;2022-12-29T02:38:17;2.20;;;0.93;;
9848;SDS011;4963;51.444;6.528;2022-12-29T02:40:51;1.47;;;1.10;;
9848;SDS011;4963;51.444;6.528;2022-12-29T02:43:23;4.37;;;1.37;;
9848;SDS011;4963;51.444;6.528;2022-12-29T02:45:55;2.30;;;1.00;;
9848;SDS011;4963;51.444;6.528;2022-12-29T02:48:27;1.50;;;1.10;;
9848;SDS011;4963;51.444;6.528;2022-12-29T02:50:58;2.37;;;1.00;;
9848;SDS011;4963;51.444;6.528;2022-12-29T02:53:28;1.63;;;1.00;;
9848;SDS011;4963;51.444;6.528;2022-12-29T02:56:15;2.20;;;1.10;;
9848;SDS011;4963;51.444;6.528;2022-12-29T02:58:42;1.83;;;1.40;;
9848;SDS011;4963;51.444;6.528;2022-12-29T03:01:25;2.50;;;1.20;;
9848;SDS011;4963;51.444;6.528;2022-12-29T03:04:03;4.03;;;1.20;;
9848;SDS011;4963;51.444;6.528;2022-12-29T03:06:42;1.37;;;1.10;;
9848;SDS011;4963;51.444;6.528;2022-12-29T03:09:20;2.77;;;1.17;;
9848;SDS011;4963;51.444;6.528;2022-12-29T03:11:56;2.77;;;1.30;;
9848;SDS011;4963;51.444;6.528;2022-12-29T03:14:37;1.70;;;1.10;;
9848;SDS011;4963;51.444;6.528;2022-12-29T03:17:29;1.70;;;1.10;;
9848;SDS011;4963;51.444;6.528;2022-12-29T03:20:06;2.43;;;1.20;;
9848;SDS011;4963;51.444;6.528;2022-12-29T03:22:36;1.17;;;1.07;;
9848;SDS011;4963;51.444;6.528;2022-12-29T03:25:08;2.53;;;1.17;;
9848;SDS011;4963;51.444;6.528;2022-12-29T03:27:40;3.40;;;1.10;;
9848;SDS011;4963;51.444;6.528;2022-12-29T03:30:10;1.57;;;1.10;;
9848;SDS011;4963;51.444;6.528;2022-12-29T03:32:40;2.33;;;1.20;;
9848;SDS011;4963;51.444;6.528;2022-12-29T03:35:11;1.20;;;1.10;;
9848;SDS011;4963;51.444;6.528;2022-12-29T03:37:41;2.93;;;1.13;;
9848;SDS011;4963;51.444;6.528;2022-12-29T03:40:11;3.30;;;0.97;;
9848;SDS011;4963;51.444;6.528;2022-12-29T03:42:38;1.10;;;1.00;;
9848;SDS011;4963;51.444;6.528;2022-12-29T03:45:07;1.93;;;1.10;;
9848;SDS011;4963;51.444;6.528;2022-12-29T03:47:35;1.20;;;1.10;;
9848;SDS011;4963;51.444;6.528;2022-12-29T03:50:03;4.37;;;1.03;;
9848;SDS011;4963;51.444;6.528;2022-12-29T03:52:31;2.83;;;1.30;;
9848;SDS011;4963;51.444;6.528;2022-12-29T03:54:58;1.80;;;1.13;;
9848;SDS011;4963;51.444;6.528;2022-12-29T03:57:24;2.53;;;0.83;;
9848;SDS011;4963;51.444;6.528;2022-12-29T03:59:51;2.63;;;1.23;;
9848;SDS011;4963;51.444;6.528;2022-12-29T04:02:18;1.60;;;1.00;;
9848;SDS011;4963;51.444;6.528;2022-12-29T04:04:45;2.47;;;1.20;;
9848;SDS011;4963;51.444;6.528;2022-12-29T04:07:13;2.53;;;1.20;;
9848;SDS011;4963;51.444;6.528;2022-12-29T04:09:40;1.57;;;1.10;;
9848;SDS011;4963;51.444;6.528;2022-12-29T04:12:06;1.77;;;1.17;;
9848;SDS011;4963;51.444;6.528;2022-12-29T04:14:33;1.83;;;1.00;;
9848;SDS011;4963;51.444;6.528;2022-12-29T04:17:00;4.93;;;1.30;;
9848;SDS011;4963;51.444;6.528;2022-12-29T04:19:27;1.07;;;0.90;;
9848;SDS011;4963;51.444;6.528;2022-12-29T04:21:54;3.03;;;1.10;;
9848;SDS011;4963;51.444;6.528;2022-12-29T04:24:22;1.80;;;0.90;;
9848;SDS011;4963;51.444;6.528;2022-12-29T04:26:48;3.77;;;1.07;;
9848;SDS011;4963;51.444;6.528;2022-12-29T04:29:15;3.90;;;1.13;;
9848;SDS011;4963;51.444;6.528;2022-12-29T04:31:42;1.00;;;0.90;;
9848;SDS011;4963;51.444;6.528;2022-12-29T04:34:09;1.43;;;0.80;;
9848;SDS011;4963;51.444;6.528;2022-12-29T04:36:35;2.53;;;1.13;;
9848;SDS011;4963;51.444;6.528;2022-12-29T04:39:03;1.93;;;1.07;;
9848;SDS011;4963;51.444;6.528;2022-12-29T04:41:32;2.53;;;1.13;;
9848;SDS011;4963;51.444;6.528;2022-12-29T04:43:59;2.90;;;1.20;;
9848;SDS011;4963;51.444;6.528;2022-12-29T04:46:25;1.80;;;0.90;;
9848;SDS011;4963;51.444;6.528;2022-12-29T04:48:52;5.27;;;1.03;;
9848;SDS011;4963;51.444;6.528;2022-12-29T04:51:19;2.63;;;0.80;;
9848;SDS011;4963;51.444;6.528;2022-12-29T04:53:46;1.53;;;1.13;;
9848;SDS011;4963;51.444;6.528;2022-12-29T04:56:12;1.17;;;0.67;;
9848;SDS011;4963;51.444;6.528;2022-12-29T04:58:41;2.60;;;0.80;;
9848;SDS011;4963;51.444;6.528;2022-12-29T05:01:07;1.13;;;0.60;;
9848;SDS011;4963;51.444;6.528;2022-12-29T05:03:34;1.10;;;0.67;;
9848;SDS011;4963;51.444;6.528;2022-12-29T05:06:01;0.73;;;0.73;;
9848;SDS011;4963;51.444;6.528;2022-12-29T05:08:28;3.87;;;0.83;;
9848;SDS011;4963;51.444;6.528;2022-12-29T05:10:54;0.70;;;0.70;;
9848;SDS011;4963;51.444;6.528;2022-12-29T05:13:21;0.80;;;0.67;;
9848;SDS011;4963;51.444;6.528;2022-12-29T05:15:50;1.77;;;0.70;;
9848;SDS011;4963;51.444;6.528;2022-12-29T05:18:18;0.87;;;0.70;;
9848;SDS011;4963;51.444;6.528;2022-12-29T05:20:46;2.83;;;0.90;;
9848;SDS011;4963;51.444;6.528;2022-12-29T05:23:13;2.17;;;0.90;;
9848;SDS011;4963;51.444;6.528;2022-12-29T05:25:40;1.40;;;0.73;;
9848;SDS011;4963;51.444;6.528;2022-12-29T05:28:07;2.20;;;0.87;;
9848;SDS011;4963;51.444;6.528;2022-12-29T05:30:34;2.13;;;1.07;;
9848;SDS011;4963;51.444;6.528;2022-12-29T05:33:02;3.03;;;1.20;;
9848;SDS011;4963;51.444;6.528;2022-12-29T05:35:31;1.93;;;1.10;;
9848;SDS011;4963;51.444;6.528;2022-12-29T05:37:58;3.27;;;1.20;;
9848;SDS011;4963;51.444;6.528;2022-12-29T05:40:25;4.97;;;1.47;;
9848;SDS011;4963;51.444;6.528;2022-12-29T05:42:51;4.17;;;1.30;;
9848;SDS011;4963;51.444;6.528;2022-12-29T05:45:18;2.97;;;1.33;;
9848;SDS011;4963;51.444;6.528;2022-12-29T05:47:45;2.43;;;1.00;;
9848;SDS011;4963;51.444;6.528;2022-12-29T05:50:13;4.77;;;1.20;;
9848;SDS011;4963;51.444;6.528;2022-12-29T05:52:40;2.20;;;0.90;;
9848;SDS011;4963;51.444;6.528;2022-12-29T05:55:07;4.03;;;1.50;;
9848;SDS011;4963;51.444;6.528;2022-12-29T05:57:34;2.60;;;1.30;;
9848;SDS011;4963;51.444;6.528;2022-12-29T06:00:01;2.77;;;1.03;;
9848;SDS011;4963;51.444;6.528;2022-12-29T06:02:28;2.43;;;1.30;;
9848;SDS011;4963;51.444;6.528;2022-12-29T06:04:54;7.33;;;1.13;;
9848;SDS011;4963;51.444;6.528;2022-12-29T06:07:23;2.23;;;1.03;;
9848;SDS011;4963;51.444;6.528;2022-12-29T06:09:49;4.10;;;1.43;;
9848;SDS011;4963;51.444;6.528;2022-12-29T06:12:16;4.07;;;1.03;;
9848;SDS011;4963;51.444;6.528;2022-12-29T06:14:43;2.60;;;1.07;;
9848;SDS011;4963;51.444;6.528;2022-12-29T06:17:10;3.07;;;1.17;;
9848;SDS011;4963;51.444;6.528;2022-12-29T06:19:37;3.73;;;1.17;;
9848;SDS011;4963;51.444;6.528;2022-12-29T06:22:03;2.70;;;1.00;;
9848;SDS011;4963;51.444;6.528;2022-12-29T06:24:33;3.97;;;0.97;;
9848;SDS011;4963;51.444;6.528;2022-12-29T06:27:00;2.37;;;1.07;;
9848;SDS011;4963;51.444;6.528;2022-12-29T06:29:27;3.07;;;1.10;;
9848;SDS011;4963;51.444;6.528;2022-12-29T06:31:54;4.27;;;0.97;;
9848;SDS011;4963;51.444;6.528;2022-12-29T06:34:23;2.43;;;1.37;;
9848;SDS011;4963;51.444;6.528;2022-12-29T06:36:49;1.07;;;0.87;;
9848;SDS011;4963;51.444;6.528;2022-12-29T06:39:16;3.57;;;1.40;;
9848;SDS011;4963;51.444;6.528;2022-12-29T06:41:44;3.00;;;1.27;;
9848;SDS011;4963;51.444;6.528;2022-12-29T06:44:11;7.17;;;1.53;;
9848;SDS011;4963;51.444;6.528;2022-12-29T06:46:38;4.33;;;1.30;;
9848;SDS011;4963;51.444;6.528;2022-12-29T06:49:05;4.27;;;1.40;;
9848;SDS011;4963;51.444;6.528;2022-12-29T06:51:31;5.90;;;1.20;;
9848;SDS011;4963;51.444;6.528;2022-12-29T06:53:58;2.97;;;1.30;;
9848;SDS011;4963;51.444;6.528;2022-12-29T06:56:25;2.97;;;1.20;;
9848;SDS011;4963;51.444;6.528;2022-12-29T06:58:53;4.67;;;1.10;;
9848;SDS011;4963;51.444;6.528;2022-12-29T07:01:20;5.23;;;1.47;;
9848;SDS011;4963;51.444;6.528;2022-12-29T07:03:47;7.37;;;1.30;;
9848;SDS011;4963;51.444;6.528;2022-12-29T07:06:14;3.10;;;1.33;;
9848;SDS011;4963;51.444;6.528;2022-12-29T07:08:41;5.40;;;1.67;;
9848;SDS011;4963;51.444;6.528;2022-12-29T07:11:08;2.73;;;1.37;;
9848;SDS011;4963;51.444;6.528;2022-12-29T07:13:35;3.30;;;0.90;;
9848;SDS011;4963;51.444;6.528;2022-12-29T07:16:06;6.40;;;1.47;;
9848;SDS011;4963;51.444;6.528;2022-12-29T07:18:33;4.77;;;1.47;;
9848;SDS011;4963;51.444;6.528;2022-12-29T07:21:01;3.63;;;1.20;;
9848;SDS011;4963;51.444;6.528;2022-12-29T07:23:29;3.53;;;1.23;;
9848;SDS011;4963;51.444;6.528;2022-12-29T07:25:59;7.17;;;1.13;;
9848;SDS011;4963;51.444;6.528;2022-12-29T07:28:26;4.90;;;1.40;;
9848;SDS011;4963;51.444;6.528;2022-12-29T07:30:53;5.80;;;1.47;;
9848;SDS011;4963;51.444;6.528;2022-12-29T07:33:21;4.83;;;1.83;;
9848;SDS011;4963;51.444;6.528;2022-12-29T07:35:47;3.43;;;1.30;;
9848;SDS011;4963;51.444;6.528;2022-12-29T07:38:14;4.63;;;1.47;;
9848;SDS011;4963;51.444;6.528;2022-12-29T07:40:41;3.63;;;1.40;;
9848;SDS011;4963;51.444;6.528;2022-12-29T07:43:08;4.60;;;1.67;;
9848;SDS011;4963;51.444;6.528;2022-12-29T07:45:35;4.53;;;1.33;;
9848;SDS011;4963;51.444;6.528;2022-12-29T07:48:01;5.03;;;1.43;;
9848;SDS011;4963;51.444;6.528;2022-12-29T07:50:30;5.00;;;1.80;;
9848;SDS011;4963;51.444;6.528;2022-12-29T07:52:57;4.87;;;1.80;;
9848;SDS011;4963;51.444;6.528;2022-12-29T07:55:23;4.13;;;1.60;;
9848;SDS011;4963;51.444;6.528;2022-12-29T07:57:52;6.00;;;1.50;;
9848;SDS011;4963;51.444;6.528;2022-12-29T08:00:19;5.43;;;1.57;;
9848;SDS011;4963;51.444;6.528;2022-12-29T08:02:46;7.83;;;1.70;;
9848;SDS011;4963;51.444;6.528;2022-12-29T08:05:13;4.33;;;1.47;;
9848;SDS011;4963;51.444;6.528;2022-12-29T08:07:43;4.63;;;1.50;;
9848;SDS011;4963;51.444;6.528;2022-12-29T08:10:10;4.03;;;1.60;;
9848;SDS011;4963;51.444;6.528;2022-12-29T08:12:37;3.70;;;1.80;;
9848;SDS011;4963;51.444;6.528;2022-12-29T08:15:05;6.97;;;1.63;;
9848;SDS011;4963;51.444;6.528;2022-12-29T08:17:33;9.50;;;2.37;;
9848;SDS011;4963;51.444;6.528;2022-12-29T08:20:00;5.13;;;1.77;;
9848;SDS011;4963;51.444;6.528;2022-12-29T08:22:27;8.77;;;1.70;;
9848;SDS011;4963;51.444;6.528;2022-12-29T08:24:55;6.77;;;1.93;;
9848;SDS011;4963;51.444;6.528;2022-12-29T08:27:22;8.17;;;1.57;;
9848;SDS011;4963;51.444;6.528;2022-12-29T08:29:49;4.17;;;1.30;;
9848;SDS011;4963;51.444;6.528;2022-12-29T08:32:16;7.97;;;1.50;;
9848;SDS011;4963;51.444;6.528;2022-12-29T08:34:43;5.40;;;1.63;;
9848;SDS011;4963;51.444;6.528;2022-12-29T08:37:10;5.77;;;1.97;;
9848;SDS011;4963;51.444;6.528;2022-12-29T08:39:36;3.60;;;1.50;;
9848;SDS011;4963;51.444;6.528;2022-12-29T08:42:04;6.03;;;1.93;;
9848;SDS011;4963;51.444;6.528;2022-12-29T08:44:31;6.00;;;1.63;;
9848;SDS011;4963;51.444;6.528;2022-12-29T08:46:58;4.97;;;1.90;;
9848;SDS011;4963;51.444;6.528;2022-12-29T08:49:25;5.37;;;1.60;;
9848;SDS011;4963;51.444;6.528;2022-12-29T08:51:51;6.97;;;1.73;;
9848;SDS011;4963;51.444;6.528;2022-12-29T08:54:18;7.90;;;1.80;;
9848;SDS011;4963;51.444;6.528;2022-12-29T08:56:45;7.60;;;2.03;;
9848;SDS011;4963;51.444;6.528;2022-12-29T08:59:13;8.47;;;1.63;;
9848;SDS011;4963;51.444;6.528;2022-12-29T09:01:40;4.70;;;1.77;;
9848;SDS011;4963;51.444;6.528;2022-12-29T09:04:07;7.43;;;1.80;;
9848;SDS011;4963;51.444;6.528;2022-12-29T09:06:34;7.07;;;1.77;;
9848;SDS011;4963;51.444;6.528;2022-12-29T09:09:01;10.37;;;2.10;;
9848;SDS011;4963;51.444;6.528;2022-12-29T09:11:28;4.27;;;1.50;;
9848;SDS011;4963;51.444;6.528;2022-12-29T09:13:55;8.37;;;2.27;;
9848;SDS011;4963;51.444;6.528;2022-12-29T09:16:23;4.87;;;1.60;;
9848;SDS011;4963;51.444;6.528;2022-12-29T09:18:51;5.33;;;1.53;;
9848;SDS011;4963;51.444;6.528;2022-12-29T09:21:18;6.23;;;1.73;;
9848;SDS011;4963;51.444;6.528;2022-12-29T09:23:45;4.33;;;1.50;;
9848;SDS011;4963;51.444;6.528;2022-12-29T09:26:12;6.07;;;1.40;;
9848;SDS011;4963;51.444;6.528;2022-12-29T09:28:38;9.53;;;2.30;;
9848;SDS011;4963;51.444;6.528;2022-12-29T09:31:05;8.30;;;1.93;;
9848;SDS011;4963;51.444;6.528;2022-12-29T09:33:34;5.97;;;1.83;;
9848;SDS011;4963;51.444;6.528;2022-12-29T09:36:00;6.67;;;1.90;;
9848;SDS011;4963;51.444;6.528;2022-12-29T09:38:28;4.63;;;1.57;;
9848;SDS011;4963;51.444;6.528;2022-12-29T09:40:56;4.70;;;1.83;;
9848;SDS011;4963;51.444;6.528;2022-12-29T09:43:37;6.20;;;1.70;;
9848;SDS011;4963;51.444;6.528;2022-12-29T09:46:15;5.73;;;1.90;;
9848;SDS011;4963;51.444;6.528;2022-12-29T09:48:51;6.03;;;1.50;;
9848;SDS011;4963;51.444;6.528;2022-12-29T09:51:24;4.93;;;1.50;;
9848;SDS011;4963;51.444;6.528;2022-12-29T09:53:53;7.07;;;2.30;;
9848;SDS011;4963;51.444;6.528;2022-12-29T09:56:24;5.87;;;1.70;;
9848;SDS011;4963;51.444;6.528;2022-12-29T09:58:54;4.77;;;1.83;;
9848;SDS011;4963;51.444;6.528;2022-12-29T10:01:26;5.57;;;1.50;;
9848;SDS011;4963;51.444;6.528;2022-12-29T10:03:58;8.47;;;2.20;;
9848;SDS011;4963;51.444;6.528;2022-12-29T10:06:30;5.80;;;2.07;;
9848;SDS011;4963;51.444;6.528;2022-12-29T10:09:02;7.13;;;2.07;;
9848;SDS011;4963;51.444;6.528;2022-12-29T10:11:46;8.00;;;2.00;;
9848;SDS011;4963;51.444;6.528;2022-12-29T10:14:30;7.37;;;2.57;;
9848;SDS011;4963;51.444;6.528;2022-12-29T10:17:06;8.47;;;2.87;;
9848;SDS011;4963;51.444;6.528;2022-12-29T10:19:51;4.50;;;1.83;;
9848;SDS011;4963;51.444;6.528;2022-12-29T10:22:45;10.17;;;2.17;;
9848;SDS011;4963;51.444;6.528;2022-12-29T10:25:22;10.63;;;2.53;;
9848;SDS011;4963;51.444;6.528;2022-12-29T10:27:53;7.80;;;2.30;;
9848;SDS011;4963;51.444;6.528;2022-12-29T10:30:24;7.20;;;2.03;;
9848;SDS011;4963;51.444;6.528;2022-12-29T10:32:52;6.20;;;1.90;;
9848;SDS011;4963;51.444;6.528;2022-12-29T10:35:23;6.83;;;2.27;;
9848;SDS011;4963;51.444;6.528;2022-12-29T10:37:52;9.10;;;2.63;;
9848;SDS011;4963;51.444;6.528;2022-12-29T10:40:25;7.43;;;2.20;;
9848;SDS011;4963;51.444;6.528;2022-12-29T10:42:55;6.77;;;1.53;;
9848;SDS011;4963;51.444;6.528;2022-12-29T10:45:24;7.13;;;1.90;;
9848;SDS011;4963;51.444;6.528;2022-12-29T10:47:56;5.97;;;1.60;;
9848;SDS011;4963;51.444;6.528;2022-12-29T10:50:28;6.90;;;1.63;;
9848;SDS011;4963;51.444;6.528;2022-12-29T10:52:55;6.67;;;1.97;;
9848;SDS011;4963;51.444;6.528;2022-12-29T10:55:27;6.23;;;1.93;;
9848;SDS011;4963;51.444;6.528;2022-12-29T10:57:59;8.07;;;1.90;;
9848;SDS011;4963;51.444;6.528;2022-12-29T11:00:31;5.77;;;1.70;;
9848;SDS011;4963;51.444;6.528;2022-12-29T11:03:06;6.73;;;1.93;;
9848;SDS011;4963;51.444;6.528;2022-12-29T11:05:50;6.03;;;2.17;;
9848;SDS011;4963;51.444;6.528;2022-12-29T11:08:21;5.87;;;2.07;;
9848;SDS011;4963;51.444;6.528;2022-12-29T11:10:57;5.57;;;1.87;;
9848;SDS011;4963;51.444;6.528;2022-12-29T11:13:27;7.37;;;2.10;;
9848;SDS011;4963;51.444;6.528;2022-12-29T11:15:54;8.47;;;1.97;;
9848;SDS011;4963;51.444;6.528;2022-12-29T11:18:22;9.87;;;2.83;;
9848;SDS011;4963;51.444;6.528;2022-12-29T11:20:52;5.77;;;2.23;;
9848;SDS011;4963;51.444;6.528;2022-12-29T11:23:22;5.87;;;1.90;;
9848;SDS011;4963;51.444;6.528;2022-12-29T11:29:03;7.17;;;2.57;;
9848;SDS011;4963;51.444;6.528;2022-12-29T11:31:43;6.80;;;1.80;;
9848;SDS011;4963;51.444;6.528;2022-12-29T11:34:16;10.13;;;1.90;;
9848;SDS011;4963;51.444;6.528;2022-12-29T11:36:45;6.50;;;2.17;;
9848;SDS011;4963;51.444;6.528;2022-12-29T11:42:04;7.00;;;2.23;;
9848;SDS011;4963;51.444;6.528;2022-12-29T11:44:41;8.70;;;2.40;;
9848;SDS011;4963;51.444;6.528;2022-12-29T11:47:23;9.90;;;2.20;;
9848;SDS011;4963;51.444;6.528;2022-12-29T11:49:54;5.83;;;2.00;;
9848;SDS011;4963;51.444;6.528;2022-12-29T11:52:25;6.37;;;2.20;;
9848;SDS011;4963;51.444;6.528;2022-12-29T11:54:54;6.07;;;2.47;;
9848;SDS011;4963;51.444;6.528;2022-12-29T11:57:22;9.20;;;2.57;;
9848;SDS011;4963;51.444;6.528;2022-12-29T11:59:51;8.63;;;2.30;;
9848;SDS011;4963;51.444;6.528;2022-12-29T12:02:30;13.70;;;2.27;;
9848;SDS011;4963;51.444;6.528;2022-12-29T12:05:08;7.13;;;2.33;;
9848;SDS011;4963;51.444;6.528;2022-12-29T12:07:41;6.77;;;2.20;;
9848;SDS011;4963;51.444;6.528;2022-12-29T12:10:23;6.87;;;1.90;;
9848;SDS011;4963;51.444;6.528;2022-12-29T12:12:56;5.47;;;2.03;;
9848;SDS011;4963;51.444;6.528;2022-12-29T12:15:29;7.47;;;2.40;;
9848;SDS011;4963;51.444;6.528;2022-12-29T12:18:02;9.43;;;2.17;;
9848;SDS011;4963;51.444;6.528;2022-12-29T12:20:36;6.97;;;1.80;;
9848;SDS011;4963;51.444;6.528;2022-12-29T12:23:13;7.07;;;1.97;;
9848;SDS011;4963;51.444;6.528;2022-12-29T12:25:49;6.97;;;2.20;;
9848;SDS011;4963;51.444;6.528;2022-12-29T12:28:21;8.67;;;2.20;;
9848;SDS011;4963;51.444;6.528;2022-12-29T12:30:55;6.37;;;1.80;;
9848;SDS011;4963;51.444;6.528;2022-12-29T12:33:24;9.40;;;2.57;;
9848;SDS011;4963;51.444;6.528;2022-12-29T12:36:00;6.40;;;1.97;;
9848;SDS011;4963;51.444;6.528;2022-12-29T12:38:42;6.50;;;2.10;;
9848;SDS011;4963;51.444;6.528;2022-12-29T12:41:19;7.10;;;2.20;;
9848;SDS011;4963;51.444;6.528;2022-12-29T12:43:56;6.57;;;2.07;;
9848;SDS011;4963;51.444;6.528;2022-12-29T12:49:38;6.60;;;1.97;;
9848;SDS011;4963;51.444;6.528;2022-12-29T12:52:16;7.50;;;2.43;;
9848;SDS011;4963;51.444;6.528;2022-12-29T12:55:02;4.63;;;1.90;;
9848;SDS011;4963;51.444;6.528;2022-12-29T12:57:45;10.77;;;1.83;;
9848;SDS011;4963;51.444;6.528;2022-12-29T13:00:19;7.40;;;1.90;;
9848;SDS011;4963;51.444;6.528;2022-12-29T13:02:51;9.80;;;2.27;;
9848;SDS011;4963;51.444;6.528;2022-12-29T13:05:32;7.83;;;2.23;;
9848;SDS011;4963;51.444;6.528;2022-12-29T13:08:18;7.70;;;2.00;;
9848;SDS011;4963;51.444;6.528;2022-12-29T13:11:01;7.50;;;2.30;;
9848;SDS011;4963;51.444;6.528;2022-12-29T13:16:31;11.10;;;2.47;;
9848;SDS011;4963;51.444;6.528;2022-12-29T13:19:08;10.10;;;1.97;;
9848;SDS011;4963;51.444;6.528;2022-12-29T13:21:46;6.23;;;2.07;;
9848;SDS011;4963;51.444;6.528;2022-12-29T13:24:22;5.70;;;2.03;;
9848;SDS011;4963;51.444;6.528;2022-12-29T13:26:57;8.23;;;2.03;;
9848;SDS011;4963;51.444;6.528;2022-12-29T13:29:30;7.60;;;2.30;;
9848;SDS011;4963;51.444;6.528;2022-12-29T13:32:05;5.97;;;2.03;;
9848;SDS011;4963;51.444;6.528;2022-12-29T13:34:45;4.43;;;1.70;;
9848;SDS011;4963;51.444;6.528;2022-12-29T13:37:18;5.97;;;2.20;;
9848;SDS011;4963;51.444;6.528;2022-12-29T13:39:48;8.53;;;2.13;;
9848;SDS011;4963;51.444;6.528;2022-12-29T13:42:22;7.00;;;2.10;;
9848;SDS011;4963;51.444;6.528;2022-12-29T13:44:51;6.70;;;2.03;;
9848;SDS011;4963;51.444;6.528;2022-12-29T13:47:25;10.77;;;2.37;;
9848;SDS011;4963;51.444;6.528;2022-12-29T13:49:56;7.30;;;1.93;;
9848;SDS011;4963;51.444;6.528;2022-12-29T13:52:28;5.83;;;1.80;;
9848;SDS011;4963;51.444;6.528;2022-12-29T13:55:07;12.40;;;2.70;;
9848;SDS011;4963;51.444;6.528;2022-12-29T13:57:51;7.50;;;2.40;;
9848;SDS011;4963;51.444;6.528;2022-12-29T14:00:24;9.33;;;1.87;;
9848;SDS011;4963;51.444;6.528;2022-12-29T14:03:11;7.87;;;2.10;;
9848;SDS011;4963;51.444;6.528;2022-12-29T14:05:45;7.77;;;2.23;;
9848;SDS011;4963;51.444;6.528;2022-12-29T14:08:29;6.03;;;2.43;;
9848;SDS011;4963;51.444;6.528;2022-12-29T14:11:02;8.33;;;2.60;;
9848;SDS011;4963;51.444;6.528;2022-12-29T14:13:37;4.63;;;1.80;;
9848;SDS011;4963;51.444;6.528;2022-12-29T14:16:06;8.23;;;2.70;;
9848;SDS011;4963;51.444;6.528;2022-12-29T14:18:41;5.37;;;1.77;;
9848;SDS011;4963;51.444;6.528;2022-12-29T14:21:10;3.83;;;2.40;;
9848;SDS011;4963;51.444;6.528;2022-12-29T14:23:47;3.70;;;1.73;;
9848;SDS011;4963;51.444;6.528;2022-12-29T14:26:16;4.77;;;1.60;;
9848;SDS011;4963;51.444;6.528;2022-12-29T14:29:01;4.47;;;2.00;;
9848;SDS011;4963;51.444;6.528;2022-12-29T14:31:42;7.30;;;2.63;;
9848;SDS011;4963;51.444;6.528;2022-12-29T14:37:04;7.60;;;2.50;;
9848;SDS011;4963;51.444;6.528;2022-12-29T14:39:48;6.97;;;2.27;;
9848;SDS011;4963;51.444;6.528;2022-12-29T14:42:15;5.63;;;1.90;;
9848;SDS011;4963;51.444;6.528;2022-12-29T14:44:49;8.03;;;2.30;;
9848;SDS011;4963;51.444;6.528;2022-12-29T14:47:18;6.10;;;2.20;;
9848;SDS011;4963;51.444;6.528;2022-12-29T14:49:47;4.23;;;1.77;;
9848;SDS011;4963;51.444;6.528;2022-12-29T14:52:16;7.20;;;1.90;;
9848;SDS011;4963;51.444;6.528;2022-12-29T14:54:50;6.57;;;1.63;;
9848;SDS011;4963;51.444;6.528;2022-12-29T14:57:19;5.63;;;1.70;;
9848;SDS011;4963;51.444;6.528;2022-12-29T14:59:57;10.80;;;1.97;;
9848;SDS011;4963;51.444;6.528;2022-12-29T15:02:33;7.23;;;1.80;;
9848;SDS011;4963;51.444;6.528;2022-12-29T15:05:04;8.37;;;2.23;;
9848;SDS011;4963;51.444;6.528;2022-12-29T15:07:34;7.93;;;1.90;;
9848;SDS011;4963;51.444;6.528;2022-12-29T15:10:03;7.10;;;1.87;;
9848;SDS011;4963;51.444;6.528;2022-12-29T15:12:35;6.80;;;1.83;;
9848;SDS011;4963;51.444;6.528;2022-12-29T15:15:17;6.50;;;1.90;;
9848;SDS011;4963;51.444;6.528;2022-12-29T15:17:46;5.37;;;2.20;;
9848;SDS011;4963;51.444;6.528;2022-12-29T15:20:23;6.23;;;2.30;;
9848;SDS011;4963;51.444;6.528;2022-12-29T15:22:53;7.43;;;2.13;;
9848;SDS011;4963;51.444;6.528;2022-12-29T15:25:22;7.77;;;2.00;;
9848;SDS011;4963;51.444;6.528;2022-12-29T15:27:50;5.00;;;1.67;;
9848;SDS011;4963;51.444;6.528;2022-12-29T15:30:20;6.33;;;1.97;;
9848;SDS011;4963;51.444;6.528;2022-12-29T15:32:50;5.40;;;2.00;;
9848;SDS011;4963;51.444;6.528;2022-12-29T15:35:25;7.40;;;2.30;;
9848;SDS011;4963;51.444;6.528;2022-12-29T15:37:57;7.97;;;2.10;;
9848;SDS011;4963;51.444;6.528;2022-12-29T15:40:25;6.50;;;1.70;;
9848;SDS011;4963;51.444;6.528;2022-12-29T15:42:58;8.23;;;1.80;;
9848;SDS011;4963;51.444;6.528;2022-12-29T15:45:38;7.17;;;1.93;;
9848;SDS011;4963;51.444;6.528;2022-12-29T15:48:05;5.90;;;1.80;;
9848;SDS011;4963;51.444;6.528;2022-12-29T15:50:39;6.13;;;2.03;;
9848;SDS011;4963;51.444;6.528;2022-12-29T15:53:09;4.10;;;1.63;;
9848;SDS011;4963;51.444;6.528;2022-12-29T15:55:38;7.63;;;2.00;;
9848;SDS011;4963;51.444;6.528;2022-12-29T15:58:18;7.50;;;1.70;;